Time;durP1;ratioP1;P1;durP2;ratioP2;P2;SDS_P1;SDS_P2;PMS_P1;PMS_P2;Temp;Humidity;BMP_temperature;BMP_pressure;BME280_temperature;BME280_humidity;BME280_pressure;Samples;Min_cycle;Max_cycle;Signal;HPM_P1;HPM_P2
2022/07/01 00:01:37;;;;;;;6.42;5.62;;;;;;;22.55;66.37;96217.59;1786037;78;21010;-85
2022/07/01 00:04:03;;;;;;;8.05;5.55;;;;;;;22.48;66.46;96214.41;1786287;78;21405;-86
2022/07/01 00:06:29;;;;;;;6.60;5.37;;;;;;;22.41;65.99;96207.22;1796341;79;21322;-87
2022/07/01 00:08:55;;;;;;;7.28;5.30;;;;;;;22.39;66.44;96215.95;1780894;78;20940;-86
2022/07/01 00:11:20;;;;;;;7.65;5.78;;;;;;;22.34;66.30;96204.04;1784584;78;21043;-85
2022/07/01 00:13:46;;;;;;;5.10;4.65;;;;;;;22.30;66.04;96205.09;1780775;78;21330;-86
2022/07/01 00:16:12;;;;;;;5.85;5.22;;;;;;;22.28;66.71;96206.38;1779806;78;21078;-85
2022/07/01 00:18:38;;;;;;;7.85;5.15;;;;;;;22.24;66.73;96209.28;1783512;80;21019;-85
2022/07/01 00:21:03;;;;;;;5.40;4.90;;;;;;;22.19;66.92;96210.60;1775200;78;21325;-86
2022/07/01 00:23:30;;;;;;;10.32;5.30;;;;;;;22.14;66.23;96216.67;1787608;78;21026;-85
2022/07/01 00:25:57;;;;;;;7.00;4.97;;;;;;;22.07;66.71;96206.31;1783813;80;21075;-85
2022/07/01 00:28:23;;;;;;;6.28;4.72;;;;;;;22.03;66.98;96201.78;1788005;80;21378;-86
2022/07/01 00:30:49;;;;;;;5.08;4.25;;;;;;;21.99;67.06;96198.86;1786025;78;21105;-86
2022/07/01 00:33:15;;;;;;;5.40;4.53;;;;;;;21.95;66.44;96196.44;1789151;78;20916;-86
2022/07/01 00:35:40;;;;;;;6.15;4.62;;;;;;;21.94;66.73;96200.66;1777885;80;21338;-86
2022/07/01 00:38:06;;;;;;;5.15;4.65;;;;;;;21.88;66.70;96191.92;1782146;80;21401;-86
2022/07/01 00:40:32;;;;;;;5.00;4.53;;;;;;;21.85;66.63;96192.44;1788331;80;21089;-85
2022/07/01 00:42:58;;;;;;;6.12;4.22;;;;;;;21.77;66.92;96188.42;1787638;78;20935;-85
2022/07/01 00:45:23;;;;;;;5.90;4.10;;;;;;;21.72;66.71;96184.96;1794772;80;21035;-87
2022/07/01 00:47:49;;;;;;;4.62;4.20;;;;;;;21.67;66.66;96189.70;1783622;78;21019;-86
2022/07/01 00:50:15;;;;;;;6.15;4.75;;;;;;;21.62;66.57;96187.54;1780871;79;21430;-85
2022/07/01 00:52:43;;;;;;;5.30;4.03;;;;;;;21.57;66.64;96185.14;1787688;79;21047;-86
2022/07/01 00:55:12;;;;;;;5.30;4.12;;;;;;;21.54;66.33;96185.66;1787286;79;21147;-86
2022/07/01 00:57:39;;;;;;;5.80;3.83;;;;;;;21.53;66.53;96186.72;1800969;78;21038;-85
2022/07/01 01:00:09;;;;;;;6.58;4.47;;;;;;;21.55;66.58;96185.13;1797786;78;20991;-85
2022/07/01 01:02:34;;;;;;;5.70;4.62;;;;;;;21.54;66.47;96186.98;1786853;79;20960;-85
2022/07/01 01:05:00;;;;;;;4.58;4.08;;;;;;;21.54;66.31;96185.66;1778386;79;20959;-86
2022/07/01 01:07:26;;;;;;;5.40;4.62;;;;;;;21.54;66.23;96190.16;1782218;79;20949;-85
2022/07/01 01:09:52;;;;;;;4.92;4.33;;;;;;;21.54;66.10;96188.30;1787229;79;21006;-86
2022/07/01 01:12:18;;;;;;;5.42;4.92;;;;;;;21.54;65.97;96186.98;1791062;79;20943;-85
2022/07/01 01:14:49;;;;;;;5.40;4.50;;;;;;;21.55;66.35;96191.22;1786253;79;21306;-84
2022/07/01 01:17:15;;;;;;;5.10;4.47;;;;;;;21.55;66.36;96190.42;1775183;78;21365;-86
2022/07/01 01:19:41;;;;;;;6.25;4.37;;;;;;;21.53;66.39;96191.20;1782999;79;20943;-84
2022/07/01 01:22:08;;;;;;;5.25;4.78;;;;;;;21.59;66.04;96191.50;1787242;79;20970;-85
2022/07/01 01:24:36;;;;;;;4.90;4.15;;;;;;;21.65;65.92;96191.81;1765025;79;20953;-85
2022/07/01 01:27:05;;;;;;;7.33;4.65;;;;;;;21.67;65.41;96192.88;1782956;79;20963;-85
2022/07/01 01:29:31;;;;;;;4.65;4.20;;;;;;;21.67;65.92;96193.67;1817600;79;21335;-85
2022/07/01 01:31:57;;;;;;;4.50;4.10;;;;;;;21.65;65.83;96189.70;1797395;79;21077;-84
2022/07/01 01:34:23;;;;;;;4.65;3.70;;;;;;;21.63;65.51;96187.80;1816788;79;21096;-84
2022/07/01 01:36:49;;;;;;;4.12;3.70;;;;;;;21.60;65.69;96182.51;1806580;79;21498;-85
2022/07/01 01:39:17;;;;;;;4.45;3.92;;;;;;;21.60;65.33;96181.72;1772156;79;20999;-85
2022/07/01 01:41:44;;;;;;;3.87;3.55;;;;;;;21.58;65.32;96178.80;1778726;79;20994;-85
2022/07/01 01:44:11;;;;;;;4.22;3.83;;;;;;;21.56;64.83;96183.55;1810034;77;20916;-84
2022/07/01 01:46:37;;;;;;;6.37;3.60;;;;;;;21.54;64.79;96180.38;1805896;79;20974;-85
2022/07/01 01:49:06;;;;;;;4.33;3.30;;;;;;;21.50;64.87;96181.95;1793159;77;21348;-85
2022/07/01 01:51:32;;;;;;;5.70;3.67;;;;;;;21.47;64.43;96185.59;1782357;78;21398;-86
2022/07/01 01:53:58;;;;;;;4.37;3.37;;;;;;;21.44;64.51;96180.83;1780087;80;21048;-85
2022/07/01 01:56:24;;;;;;;4.10;2.85;;;;;;;21.40;64.39;96182.39;1773657;80;21040;-86
2022/07/01 01:58:51;;;;;;;5.08;3.67;;;;;;;21.37;64.32;96182.91;1774037;79;21411;-86
2022/07/01 02:01:18;;;;;;;4.03;3.20;;;;;;;21.35;64.37;96187.66;1779680;79;21097;-85
2022/07/01 02:03:44;;;;;;;3.40;3.00;;;;;;;21.31;64.03;96188.66;1780949;79;21326;-85
2022/07/01 02:06:10;;;;;;;4.17;3.30;;;;;;;21.30;64.04;96184.96;1766141;79;20895;-85
2022/07/01 02:08:37;;;;;;;3.60;3.30;;;;;;;21.27;63.77;96187.59;1796605;77;21007;-86
2022/07/01 02:11:04;;;;;;;4.33;3.30;;;;;;;21.26;63.27;96193.40;1792140;79;21400;-85
2022/07/01 02:13:30;;;;;;;5.60;3.22;;;;;;;21.26;63.46;96187.31;1822311;78;20900;-85
2022/07/01 02:15:56;;;;;;;3.60;3.30;;;;;;;21.27;63.33;96192.34;1801905;78;21279;-85
2022/07/01 02:18:23;;;;;;;5.67;3.30;;;;;;;21.27;63.02;96192.88;1798837;77;21010;-85
2022/07/01 02:20:49;;;;;;;4.72;3.67;;;;;;;21.26;62.69;96195.25;1799645;79;20967;-83
2022/07/01 02:23:15;;;;;;;3.27;2.98;;;;;;;21.25;63.03;96194.97;1799738;77;21042;-85
2022/07/01 02:25:41;;;;;;;3.20;2.92;;;;;;;21.23;62.85;96189.91;1822303;77;21375;-88
2022/07/01 02:28:07;;;;;;;4.25;3.22;;;;;;;21.23;62.96;96189.13;1798709;77;20936;-86
2022/07/01 02:30:36;;;;;;;3.65;3.27;;;;;;;21.24;62.87;96194.67;1813940;77;21334;-86
2022/07/01 02:33:01;;;;;;;4.00;3.08;;;;;;;21.23;62.64;96188.59;1766370;79;21046;-85
2022/07/01 02:35:27;;;;;;;4.47;3.10;;;;;;;21.23;62.92;96188.59;1784590;79;21012;-85
2022/07/01 02:37:52;;;;;;;4.80;2.95;;;;;;;21.24;62.46;96190.71;1764580;79;21329;-85
2022/07/01 02:40:18;;;;;;;3.47;3.15;;;;;;;21.23;62.05;96195.20;1762674;78;20938;-85
2022/07/01 02:42:44;;;;;;;4.70;2.98;;;;;;;21.23;61.48;96193.88;1790064;79;20956;-85
2022/07/01 02:45:10;;;;;;;4.20;2.98;;;;;;;21.24;62.25;96202.11;1771603;79;20971;-85
2022/07/01 02:47:38;;;;;;;4.12;3.27;;;;;;;21.23;63.00;96205.77;1793324;78;21028;-85
2022/07/01 02:50:06;;;;;;;4.70;3.20;;;;;;;21.22;62.16;96203.38;1768806;80;21036;-86
2022/07/01 02:52:34;;;;;;;3.15;2.95;;;;;;;21.18;62.88;96203.09;1824923;78;21072;-85
2022/07/01 02:55:02;;;;;;;3.40;3.10;;;;;;;21.17;63.36;96206.79;1779313;80;21058;-85
2022/07/01 02:57:29;;;;;;;3.45;3.15;;;;;;;21.14;63.11;96201.98;1806262;78;21040;-85
2022/07/01 02:59:54;;;;;;;5.72;3.55;;;;;;;21.13;63.80;96211.48;1811277;77;21019;-84
2022/07/01 03:02:20;;;;;;;3.70;2.67;;;;;;;21.12;63.77;96209.38;1800198;77;20961;-84
2022/07/01 03:04:47;;;;;;;6.03;3.55;;;;;;;21.15;63.61;96204.94;1811488;78;21007;-84
2022/07/01 03:07:14;;;;;;;3.60;3.30;;;;;;;21.18;63.36;96208.91;1784020;79;20961;-85
2022/07/01 03:09:41;;;;;;;3.35;3.05;;;;;;;21.19;63.50;96198.09;1795615;78;21407;-85
2022/07/01 03:15:04;;;;;;;4.30;3.00;;;;;;;21.23;63.67;96198.37;1787309;78;21082;-85
2022/07/01 03:17:31;;;;;;;5.20;2.92;;;;;;;21.18;63.31;96194.38;1784239;79;20991;-86
2022/07/01 03:19:57;;;;;;;4.20;3.30;;;;;;;21.26;63.64;96196.04;1828213;77;21374;-84
2022/07/01 03:22:25;;;;;;;4.33;3.30;;;;;;;21.27;64.12;96202.12;1785849;79;21018;-85
2022/07/01 03:24:51;;;;;;;4.83;3.15;;;;;;;21.24;64.40;96199.47;1788949;80;21065;-86
2022/07/01 03:27:17;;;;;;;3.47;3.05;;;;;;;21.21;64.22;96200.47;1810560;77;20947;-85
2022/07/01 03:29:43;;;;;;;4.37;3.52;;;;;;;21.22;64.31;96209.47;1797720;79;20995;-85
2022/07/01 03:32:09;;;;;;;4.55;3.50;;;;;;;21.23;64.22;96204.97;1765427;79;21481;-84
2022/07/01 03:34:42;;;;;;;3.55;3.25;;;;;;;21.24;64.31;96210.53;1770877;78;20954;-85
2022/07/01 03:37:09;;;;;;;3.90;3.50;;;;;;;21.23;64.24;96212.91;1793948;78;20979;-85
2022/07/01 03:39:35;;;;;;;3.87;3.58;;;;;;;21.22;64.24;96221.35;1797107;78;20984;-85
2022/07/01 03:42:02;;;;;;;3.87;3.50;;;;;;;21.21;65.25;96216.33;1775691;79;21562;-85
2022/07/01 03:44:28;;;;;;;5.28;4.00;;;;;;;21.17;65.63;96212.60;1793359;78;20980;-84
2022/07/01 03:46:55;;;;;;;3.60;3.30;;;;;;;21.18;66.02;96216.83;1800508;77;20928;-84
2022/07/01 03:49:21;;;;;;;4.05;3.52;;;;;;;21.18;66.00;96215.52;1805455;79;20940;-85
2022/07/01 03:51:46;;;;;;;4.90;4.20;;;;;;;21.19;66.00;96220.55;1818291;78;21008;-85
2022/07/01 03:54:30;;;;;;;4.85;3.85;;;;;;;21.20;66.17;96222.14;1812398;78;20995;-85
2022/07/01 03:57:01;;;;;;;4.03;3.62;;;;;;;21.21;65.95;96230.33;1804174;78;20916;-85
2022/07/01 03:59:27;;;;;;;4.10;3.70;;;;;;;21.25;65.82;96233.30;1791139;78;20944;-85
2022/07/01 04:01:54;;;;;;;5.05;4.53;;;;;;;21.24;66.08;96236.95;1785848;78;21012;-85
2022/07/01 04:04:20;;;;;;;4.22;3.90;;;;;;;21.22;66.62;96236.41;1807540;79;20971;-84
2022/07/01 04:06:47;;;;;;;5.33;4.20;;;;;;;21.17;67.00;96238.50;1811084;77;20940;-84
2022/07/01 04:09:15;;;;;;;5.12;3.70;;;;;;;21.15;67.31;96238.45;1800774;79;21338;-85
2022/07/01 04:11:43;;;;;;;4.15;3.75;;;;;;;21.10;67.53;96232.61;1803487;78;20912;-84
2022/07/01 04:14:09;;;;;;;4.47;3.60;;;;;;;21.10;67.59;96237.09;1774874;80;21110;-85
2022/07/01 04:16:35;;;;;;;5.45;3.30;;;;;;;21.10;67.58;96242.38;1778088;79;20967;-85
2022/07/01 04:19:01;;;;;;;4.58;3.90;;;;;;;21.13;67.45;96245.83;1795116;79;20931;-85
2022/07/01 04:24:13;;;;;;;7.05;4.42;;;;;;;21.13;67.42;96239.23;1776896;78;21066;-86
2022/07/01 04:26:38;;;;;;;5.10;4.12;;;;;;;21.21;67.89;96249.35;1792077;77;20949;-86
2022/07/01 04:29:04;;;;;;;4.53;3.92;;;;;;;21.22;68.04;96250.42;1807357;77;21334;-86
2022/07/01 04:31:29;;;;;;;4.83;3.85;;;;;;;21.22;68.30;96248.30;1785745;78;20938;-85
2022/07/01 04:33:55;;;;;;;4.70;4.10;;;;;;;21.23;68.68;96259.94;1789900;77;20965;-84
2022/07/01 04:36:21;;;;;;;4.75;3.83;;;;;;;21.25;69.03;96262.36;1814519;77;21671;-85
2022/07/01 04:38:47;;;;;;;5.12;4.22;;;;;;;21.28;69.20;96257.88;1792567;79;21009;-85
2022/07/01 04:43:57;;;;;;;5.17;4.62;;;;;;;21.29;69.66;96256.83;1776444;80;20951;-85
2022/07/01 04:46:23;;;;;;;4.28;3.87;;;;;;;21.26;69.49;96253.38;1784164;78;21059;-85
2022/07/01 04:48:48;;;;;;;4.10;3.70;;;;;;;21.26;69.89;96255.50;1788192;78;21042;-85
2022/07/01 04:51:14;;;;;;;4.55;4.15;;;;;;;21.23;69.70;96269.19;1762674;80;21394;-85
2022/07/01 04:53:40;;;;;;;6.35;4.15;;;;;;;21.22;69.91;96266.80;1791602;78;20958;-85
2022/07/01 04:56:05;;;;;;;4.35;3.95;;;;;;;21.21;69.85;96265.20;1788418;79;20962;-85
2022/07/01 04:58:31;;;;;;;5.60;3.95;;;;;;;21.23;70.04;96271.03;1788603;79;21360;-85
2022/07/01 05:00:57;;;;;;;4.15;3.75;;;;;;;21.25;70.14;96269.76;1790388;79;20993;-85
2022/07/01 05:03:23;;;;;;;3.87;3.58;;;;;;;21.27;70.21;96273.47;1801036;79;20930;-85
2022/07/01 05:05:48;;;;;;;4.67;3.98;;;;;;;21.25;70.38;96263.16;1807620;79;20962;-85
2022/07/01 05:08:14;;;;;;;4.95;4.05;;;;;;;21.25;70.47;96263.16;1802971;78;21071;-85
2022/07/01 05:10:40;;;;;;;4.05;3.75;;;;;;;21.24;70.35;96262.88;1811664;79;21330;-84
2022/07/01 05:13:07;;;;;;;5.12;3.87;;;;;;;21.25;70.63;96266.32;1793313;79;20976;-86
2022/07/01 05:15:32;;;;;;;4.25;3.85;;;;;;;21.24;70.60;96258.09;1782147;79;21305;-85
2022/07/01 05:23:16;;;;;;;4.17;3.70;;;;;;;21.48;71.27;96271.80;1794466;78;21055;-85
2022/07/01 05:25:41;;;;;;;4.40;4.00;;;;;;;21.53;71.70;96267.34;1780711;79;21050;-85
2022/07/01 05:28:08;;;;;;;6.28;4.33;;;;;;;21.60;71.80;96266.32;1800490;79;20936;-85
2022/07/01 05:30:33;;;;;;;5.37;3.60;;;;;;;21.64;72.13;96262.94;1777158;79;20940;-85
2022/07/01 05:32:59;;;;;;;5.15;3.75;;;;;;;21.71;72.62;96258.20;1800564;78;20992;-86
2022/07/01 05:35:25;;;;;;;4.17;3.83;;;;;;;21.79;72.56;96263.53;1782751;79;20930;-86
2022/07/01 05:37:51;;;;;;;5.42;4.45;;;;;;;21.85;72.40;96265.17;1775216;79;20986;-86
2022/07/01 05:40:17;;;;;;;4.67;3.95;;;;;;;21.92;72.47;96265.73;1778748;79;20981;-85
2022/07/01 05:42:42;;;;;;;4.80;4.40;;;;;;;21.98;72.81;96260.76;1788329;77;21292;-83
2022/07/01 05:45:10;;;;;;;4.97;4.47;;;;;;;22.05;73.36;96263.98;1789611;78;20979;-84
2022/07/01 05:47:35;;;;;;;4.60;4.20;;;;;;;22.16;71.19;96266.96;1798961;78;20941;-86
2022/07/01 05:50:01;;;;;;;5.45;4.30;;;;;;;22.32;72.00;96263.06;1788519;80;20985;-85
2022/07/01 05:52:27;;;;;;;7.33;4.87;;;;;;;22.43;71.97;96262.02;1794073;77;20993;-85
2022/07/01 05:54:53;;;;;;;4.72;4.33;;;;;;;22.49;71.85;96259.69;1790221;78;21317;-85
2022/07/01 05:57:18;;;;;;;5.92;4.60;;;;;;;22.55;72.22;96256.52;1790010;77;21073;-85
2022/07/01 05:59:44;;;;;;;5.00;4.15;;;;;;;22.62;72.82;96254.44;1806442;77;21031;-84
2022/07/01 06:02:10;;;;;;;4.45;4.05;;;;;;;22.71;69.12;96254.97;1805301;78;20985;-84
2022/07/01 06:04:35;;;;;;;4.80;4.37;;;;;;;22.89;71.93;96255.03;1787800;79;21364;-84
2022/07/01 06:07:01;;;;;;;5.35;4.40;;;;;;;22.96;71.91;96252.94;1759793;79;20931;-86
2022/07/01 06:09:27;;;;;;;6.20;4.37;;;;;;;23.04;72.13;96255.59;1756981;79;20977;-84
2022/07/01 06:11:53;;;;;;;5.78;5.17;;;;;;;23.09;71.51;96258.77;1789877;79;20943;-85
2022/07/01 06:14:18;;;;;;;4.70;4.30;;;;;;;23.12;71.70;96263.03;1776254;79;20934;-86
2022/07/01 06:16:44;;;;;;;5.12;4.22;;;;;;;23.17;72.09;96252.95;1774384;79;20964;-85
2022/07/01 06:19:10;;;;;;;5.58;4.55;;;;;;;23.27;72.52;96250.31;1773843;80;21366;-85
2022/07/01 06:21:35;;;;;;;4.58;4.08;;;;;;;23.34;72.45;96243.67;1774414;79;21097;-85
2022/07/01 06:24:01;;;;;;;5.37;4.20;;;;;;;23.53;71.35;96251.08;1777757;79;20916;-85
2022/07/01 06:26:27;;;;;;;5.28;4.20;;;;;;;23.62;71.80;96248.20;1788202;79;21352;-85
2022/07/01 06:28:53;;;;;;;4.55;4.15;;;;;;;23.62;71.80;96248.20;1788372;79;20933;-85
2022/07/01 06:31:19;;;;;;;4.75;4.12;;;;;;;23.65;71.85;96249.78;1787264;79;20983;-85
2022/07/01 06:33:44;;;;;;;4.70;3.98;;;;;;;23.70;72.22;96258.25;1783074;79;21324;-85
2022/07/01 06:36:10;;;;;;;4.58;4.20;;;;;;;23.74;72.99;96247.89;1783167;79;20940;-85
2022/07/01 06:38:36;;;;;;;5.97;4.10;;;;;;;23.79;73.58;96252.68;1793069;79;20952;-85
2022/07/01 06:43:46;;;;;;;5.83;4.37;;;;;;;23.91;72.87;96249.19;1810917;79;20993;-86
2022/07/01 06:46:11;;;;;;;4.80;4.33;;;;;;;24.11;67.29;96251.55;1791872;77;21312;-85
2022/07/01 06:48:37;;;;;;;4.80;4.40;;;;;;;24.29;70.96;96253.63;1796148;78;20929;-86
2022/07/01 06:51:03;;;;;;;4.55;4.15;;;;;;;24.38;72.10;96253.84;1769309;79;21000;-85
2022/07/01 06:53:29;;;;;;;4.62;4.22;;;;;;;24.43;72.00;96258.62;1762970;78;21332;-86
2022/07/01 06:55:54;;;;;;;4.10;3.70;;;;;;;24.45;71.79;96255.69;1790932;77;21063;-86
2022/07/01 06:58:20;;;;;;;5.35;3.98;;;;;;;24.50;70.04;96256.45;1790452;79;21355;-85
2022/07/01 07:00:46;;;;;;;4.65;4.25;;;;;;;24.62;71.80;96247.38;1797104;77;21006;-86
2022/07/01 07:03:11;;;;;;;5.12;4.70;;;;;;;24.67;71.39;96247.33;1792242;77;20956;-85
2022/07/01 07:05:37;;;;;;;4.90;4.47;;;;;;;24.69;71.75;96249.97;1803489;77;21342;-84
2022/07/01 07:08:03;;;;;;;7.12;5.20;;;;;;;24.70;72.22;96249.44;1816432;77;20915;-84
2022/07/01 07:10:29;;;;;;;5.83;4.72;;;;;;;24.88;68.71;96251.98;1807429;77;21331;-85
2022/07/01 07:12:55;;;;;;;5.53;4.05;;;;;;;25.10;65.61;96251.88;1790446;77;20975;-85
2022/07/01 07:15:21;;;;;;;5.20;4.10;;;;;;;25.29;66.99;96242.69;1813922;77;20947;-85
2022/07/01 07:17:46;;;;;;;4.50;4.10;;;;;;;25.34;66.82;96247.95;1819801;79;20940;-84
2022/07/01 07:20:12;;;;;;;4.72;4.33;;;;;;;25.39;68.59;96250.59;1822254;79;20956;-84
2022/07/01 07:22:38;;;;;;;4.83;4.20;;;;;;;25.56;64.52;96252.05;1811408;77;21279;-84
2022/07/01 07:25:05;;;;;;;5.70;4.20;;;;;;;25.78;64.02;96255.59;1810434;77;20979;-84
2022/07/01 07:27:31;;;;;;;5.12;4.40;;;;;;;25.95;64.03;96256.74;1792181;78;20996;-84
2022/07/01 07:29:56;;;;;;;6.67;5.50;;;;;;;26.07;65.86;96257.69;1811919;79;21295;-84
2022/07/01 07:32:22;;;;;;;7.33;6.35;;;;;;;26.12;66.65;96266.95;1786597;79;20948;-85
2022/07/01 07:34:48;;;;;;;7.22;6.53;;;;;;;26.17;66.03;96265.55;1779667;79;21000;-84
2022/07/01 07:37:14;;;;;;;6.87;6.20;;;;;;;26.29;65.86;96267.28;1799105;79;20916;-84
2022/07/01 07:39:40;;;;;;;8.80;7.05;;;;;;;26.36;66.16;96258.17;1782199;79;20969;-86
2022/07/01 07:42:06;;;;;;;7.85;7.15;;;;;;;26.39;65.12;96255.75;1796848;78;20959;-85
2022/07/01 07:44:32;;;;;;;8.20;7.50;;;;;;;26.53;66.15;96267.30;1785353;79;20949;-84
2022/07/01 07:46:58;;;;;;;7.37;6.67;;;;;;;26.65;65.46;96280.73;1789496;78;20996;-85
2022/07/01 07:49:24;;;;;;;7.22;6.53;;;;;;;26.75;65.67;96282.73;1780487;78;21366;-86
2022/07/01 07:51:52;;;;;;;7.78;7.15;;;;;;;26.81;65.65;96279.45;1781887;78;20964;-85
2022/07/01 07:54:17;;;;;;;8.08;6.47;;;;;;;26.89;65.08;96280.94;1800718;79;20963;-85
2022/07/01 07:56:43;;;;;;;6.50;6.00;;;;;;;26.99;64.07;96278.66;1787435;79;21152;-86
2022/07/01 07:59:10;;;;;;;7.05;6.28;;;;;;;27.07;64.69;96280.72;1776004;79;21087;-85
2022/07/01 08:01:36;;;;;;;7.33;6.72;;;;;;;27.13;62.36;96284.88;1771512;79;20994;-88
2022/07/01 08:04:01;;;;;;;7.97;7.17;;;;;;;27.21;63.03;96279.45;1766993;79;21681;-85
2022/07/01 08:06:28;;;;;;;7.92;6.35;;;;;;;27.30;62.42;96285.70;1778998;79;20913;-85
2022/07/01 08:08:55;;;;;;;8.78;6.55;;;;;;;27.41;60.81;96286.34;1770801;78;21062;-86
2022/07/01 08:11:21;;;;;;;6.03;5.58;;;;;;;27.55;61.75;96293.06;1787910;79;21374;-85
2022/07/01 08:13:47;;;;;;;7.12;5.87;;;;;;;27.69;59.86;96289.37;1809329;79;21043;-85
2022/07/01 08:16:13;;;;;;;6.72;5.85;;;;;;;27.86;58.57;96292.03;1807352;77;20947;-86
2022/07/01 08:18:39;;;;;;;7.03;6.42;;;;;;;27.99;58.62;96290.73;1792013;77;21012;-86
2022/07/01 08:21:05;;;;;;;6.42;5.70;;;;;;;28.10;60.67;96293.44;1802811;77;20984;-85
2022/07/01 08:23:31;;;;;;;6.92;6.25;;;;;;;28.23;58.15;96297.77;1801661;77;21374;-85
2022/07/01 08:25:56;;;;;;;6.90;6.30;;;;;;;28.39;57.39;96305.22;1791246;77;20928;-85
2022/07/01 08:28:22;;;;;;;6.53;6.03;;;;;;;28.55;57.13;96300.36;1800790;77;20936;-86
2022/07/01 08:30:48;;;;;;;7.28;5.67;;;;;;;28.71;56.23;96299.50;1803353;77;20944;-85
2022/07/01 08:33:13;;;;;;;6.67;6.00;;;;;;;28.89;56.05;96301.28;1795812;77;21374;-85
2022/07/01 08:35:39;;;;;;;6.40;5.87;;;;;;;29.05;55.87;96301.73;1804954;77;20936;-84
2022/07/01 08:38:06;;;;;;;6.47;5.90;;;;;;;29.20;55.47;96305.95;1801950;77;20948;-85
2022/07/01 08:40:32;;;;;;;6.37;5.75;;;;;;;29.38;55.64;96306.33;1790728;77;20940;-85
2022/07/01 08:42:59;;;;;;;6.35;5.62;;;;;;;29.56;54.49;96304.05;1794119;77;20992;-85
2022/07/01 08:45:26;;;;;;;6.17;5.35;;;;;;;29.73;54.65;96304.70;1780189;79;20960;-84
2022/07/01 08:47:54;;;;;;;6.42;5.72;;;;;;;29.89;52.14;96303.22;1795933;77;20991;-86
2022/07/01 08:50:20;;;;;;;6.58;5.40;;;;;;;29.97;51.57;96300.37;1766462;77;20979;-84
2022/07/01 08:52:46;;;;;;;5.90;5.30;;;;;;;30.05;52.37;96303.66;1835842;77;21099;-84
2022/07/01 08:55:12;;;;;;;7.15;5.72;;;;;;;30.22;52.13;96306.95;1813328;77;21073;-85
2022/07/01 08:57:37;;;;;;;6.90;5.62;;;;;;;30.36;51.19;96307.65;1795254;77;20971;-84
2022/07/01 09:00:05;;;;;;;8.28;5.47;;;;;;;30.49;51.31;96301.94;1840011;77;21016;-84
2022/07/01 09:02:52;;;;;;;7.80;5.87;;;;;;;30.63;49.99;96303.20;1801691;77;20948;-84
2022/07/01 09:05:18;;;;;;;8.93;6.40;;;;;;;30.69;49.93;96301.38;1793293;79;20982;-84
2022/07/01 09:07:44;;;;;;;8.40;5.47;;;;;;;30.76;49.71;96295.02;1812621;77;21025;-84
2022/07/01 09:10:18;;;;;;;5.87;5.28;;;;;;;30.87;50.38;96298.73;1807523;77;21334;-84
2022/07/01 09:12:47;;;;;;;7.95;4.90;;;;;;;30.99;49.88;96299.70;1796853;77;20995;-85
2022/07/01 09:15:27;;;;;;;6.87;5.25;;;;;;;31.11;50.18;96295.61;1795177;77;21342;-84
2022/07/01 09:17:55;;;;;;;5.83;5.30;;;;;;;31.26;48.67;96296.52;1793428;77;21003;-84
2022/07/01 09:20:32;;;;;;;7.53;5.47;;;;;;;31.30;48.87;96296.11;1796227;77;21440;-84
2022/07/01 09:23:10;;;;;;;6.10;5.50;;;;;;;31.32;48.21;96289.87;1807752;77;20972;-84
2022/07/01 09:25:47;;;;;;;9.25;5.58;;;;;;;31.43;47.46;96289.00;1796850;77;20905;-86
2022/07/01 09:28:29;;;;;;;7.28;4.87;;;;;;;31.51;47.66;96291.66;1791544;77;21342;-86
2022/07/01 09:30:59;;;;;;;6.55;4.92;;;;;;;31.56;46.62;96291.48;1791360;77;21359;-86
2022/07/01 09:33:28;;;;;;;5.72;5.05;;;;;;;31.59;47.39;96292.77;1795564;77;21067;-86
2022/07/01 09:35:55;;;;;;;7.40;4.65;;;;;;;31.64;47.31;96300.10;1798719;77;21066;-86
2022/07/01 09:38:23;;;;;;;7.35;4.90;;;;;;;31.76;46.72;96300.04;1840440;77;22056;-87
2022/07/01 09:40:58;;;;;;;6.30;4.87;;;;;;;31.79;45.60;96307.45;1805669;77;21046;-87
2022/07/01 09:43:27;;;;;;;5.55;4.60;;;;;;;31.78;45.35;96298.61;1776459;79;20997;-87
2022/07/01 09:46:06;;;;;;;5.67;4.58;;;;;;;31.84;43.89;96293.84;1790261;79;21011;-86
2022/07/01 09:48:40;;;;;;;6.05;4.55;;;;;;;31.89;44.84;96300.38;1796683;77;21010;-87
2022/07/01 09:51:08;;;;;;;6.50;5.10;;;;;;;31.91;43.87;96298.98;1834423;77;21023;-87
2022/07/01 09:53:35;;;;;;;5.72;4.87;;;;;;;31.93;44.36;96300.00;1795232;77;20983;-87
2022/07/01 09:56:01;;;;;;;6.05;4.55;;;;;;;31.97;43.78;96302.27;1807640;77;21402;-88
2022/07/01 09:58:27;;;;;;;5.87;3.80;;;;;;;32.03;43.61;96299.63;1793544;79;21003;-86
2022/07/01 10:00:53;;;;;;;7.30;3.40;;;;;;;32.09;42.63;96297.02;1837442;77;20991;-87
2022/07/01 10:03:19;;;;;;;5.15;3.47;;;;;;;32.12;42.00;96300.95;1802539;77;21054;-86
2022/07/01 10:06:08;;;;;;;6.78;3.70;;;;;;;32.19;41.90;96294.52;1805453;77;20953;-86
2022/07/01 10:09:09;;;;;;;6.08;3.45;;;;;;;32.20;40.66;96298.22;1805422;77;20928;-86
2022/07/01 10:12:07;;;;;;;4.85;3.08;;;;;;;32.28;39.81;96298.00;1749341;79;21078;-86
2022/07/01 10:14:37;;;;;;;5.78;3.25;;;;;;;32.30;42.23;96298.46;1813652;77;20968;-87
2022/07/01 10:17:03;;;;;;;5.53;3.00;;;;;;;32.30;39.03;96293.09;1797629;79;20931;-86
2022/07/01 10:19:30;;;;;;;5.67;2.95;;;;;;;32.33;40.83;96287.05;1775617;79;20932;-85
2022/07/01 10:22:17;;;;;;;4.78;2.58;;;;;;;32.39;40.34;96290.37;1807527;79;20974;-85
2022/07/01 10:24:43;;;;;;;6.70;3.10;;;;;;;32.41;39.48;96297.55;1806693;77;20951;-85
2022/07/01 10:27:13;;;;;;;5.22;2.87;;;;;;;32.43;40.30;96287.26;1815434;77;20956;-85
2022/07/01 10:29:39;;;;;;;6.72;2.75;;;;;;;32.43;39.66;96292.08;1795573;79;20944;-86
2022/07/01 10:32:13;;;;;;;5.72;3.25;;;;;;;32.47;39.77;96286.83;1823353;77;21022;-86
2022/07/01 10:34:41;;;;;;;4.20;2.95;;;;;;;32.49;39.59;96284.61;1811370;77;21373;-85
2022/07/01 10:37:09;;;;;;;4.33;3.10;;;;;;;32.49;40.18;96288.64;1813960;77;21409;-85
2022/07/01 10:39:57;;;;;;;4.50;3.40;;;;;;;32.49;40.12;96293.46;1815702;77;21393;-87
2022/07/01 10:42:37;;;;;;;7.67;3.70;;;;;;;32.50;41.00;96293.69;1792674;77;21058;-88
2022/07/01 10:45:06;;;;;;;4.78;3.47;;;;;;;32.58;40.16;96286.70;1817522;77;20944;-82
2022/07/01 10:47:32;;;;;;;4.92;4.20;;;;;;;32.63;39.73;96291.09;1800675;78;21330;-83
2022/07/01 10:50:11;;;;;;;4.50;3.67;;;;;;;32.66;40.57;96286.41;1803607;78;20967;-83
2022/07/01 10:52:38;;;;;;;5.78;4.65;;;;;;;32.68;40.32;96281.48;1793503;78;20976;-83
2022/07/01 10:55:07;;;;;;;7.25;4.90;;;;;;;32.74;40.74;96282.33;1798558;79;20944;-83
2022/07/01 10:57:41;;;;;;;5.40;3.83;;;;;;;32.82;40.55;96279.38;1802356;78;21334;-83
2022/07/01 11:00:16;;;;;;;8.80;4.60;;;;;;;32.88;39.70;96284.02;1798089;78;20960;-82
2022/07/01 11:02:41;;;;;;;7.08;3.95;;;;;;;32.94;40.76;96275.97;1790679;78;21021;-83
2022/07/01 11:05:15;;;;;;;4.85;4.28;;;;;;;33.00;39.36;96280.03;1801380;78;21123;-83
2022/07/01 11:07:45;;;;;;;8.58;4.45;;;;;;;33.01;38.92;96281.61;1789975;80;20939;-84
2022/07/01 11:10:12;;;;;;;7.10;4.20;;;;;;;33.02;39.97;96280.48;1789479;78;21723;-84
2022/07/01 11:12:38;;;;;;;5.53;4.47;;;;;;;33.01;38.72;96274.32;1796578;78;21019;-82
2022/07/01 11:15:10;;;;;;;5.62;4.10;;;;;;;33.03;39.48;96269.95;1765834;78;21481;-82
2022/07/01 11:17:35;;;;;;;5.28;4.08;;;;;;;33.02;39.15;96266.47;1772236;80;20983;-90
2022/07/01 11:20:02;;;;;;;5.40;3.85;;;;;;;33.05;39.39;96267.19;1795973;78;21078;-82
2022/07/01 11:22:32;;;;;;;5.03;4.00;;;;;;;33.07;40.06;96256.88;1805764;78;20991;-82
2022/07/01 11:25:07;;;;;;;9.78;6.60;;;;;;;33.17;38.96;96257.58;1791002;78;21003;-82
2022/07/01 11:27:33;;;;;;;5.92;4.35;;;;;;;33.16;39.20;96251.96;1784839;78;20999;-83
2022/07/01 11:30:03;;;;;;;5.37;3.60;;;;;;;33.16;38.84;96256.79;1784982;78;20979;-83
2022/07/01 11:32:33;;;;;;;6.58;3.95;;;;;;;33.20;38.73;96249.65;1797755;78;21432;-85
2022/07/01 11:35:00;;;;;;;5.62;4.00;;;;;;;33.22;38.68;96246.06;1772588;80;21018;-85
2022/07/01 11:40:17;;;;;;;5.40;4.10;;;;;;;33.20;37.70;96241.57;1793456;78;21024;-85
2022/07/01 11:42:43;;;;;;;6.08;4.50;;;;;;;33.20;38.24;96237.53;1803836;78;21441;-86
2022/07/01 11:45:09;;;;;;;7.58;4.33;;;;;;;33.26;39.06;96236.76;1769092;80;21310;-82
2022/07/01 11:47:35;;;;;;;6.47;4.75;;;;;;;33.26;38.04;96244.28;1774274;78;20995;-84
2022/07/01 11:50:01;;;;;;;5.72;4.42;;;;;;;33.34;38.34;96242.08;1771695;80;21023;-84
2022/07/01 11:52:27;;;;;;;7.40;4.20;;;;;;;33.40;38.53;96238.08;1778645;78;21382;-85
2022/07/01 11:54:55;;;;;;;7.08;5.03;;;;;;;33.44;36.62;96228.77;1796026;79;20975;-85